createdAt,value
2023-02-09T00:01:03.036Z,-1.23
2023-02-09T00:03:29.589Z,-1.24
2023-02-09T00:05:58.208Z,-1.26
2023-02-09T00:08:24.704Z,-1.24
2023-02-09T00:10:51.167Z,-1.26
2023-02-09T00:13:23.721Z,-1.38
2023-02-09T00:15:50.228Z,-1.52
2023-02-09T00:18:16.838Z,-1.58
2023-02-09T00:20:43.674Z,-1.52
2023-02-09T00:23:10.426Z,-1.54
2023-02-09T00:25:40.127Z,-1.67
2023-02-09T00:28:06.980Z,-1.78
2023-02-09T00:30:33.563Z,-1.76
2023-02-09T00:33:00.094Z,-1.97
2023-02-09T00:35:26.637Z,-2.09
2023-02-09T00:37:53.836Z,-2.05
2023-02-09T00:40:20.389Z,-2.12
2023-02-09T00:42:46.869Z,-2.13
2023-02-09T00:45:13.805Z,-2.32
2023-02-09T00:47:40.722Z,-2.33
2023-02-09T00:50:08.454Z,-2.28
2023-02-09T00:52:35.248Z,-2.25
2023-02-09T00:55:01.705Z,-2.23
2023-02-09T00:57:28.252Z,-2.34
2023-02-09T00:59:54.792Z,-2.31
2023-02-09T01:02:21.265Z,-2.48
2023-02-09T01:04:47.797Z,-2.49
2023-02-09T01:07:15.967Z,-2.51
2023-02-09T01:09:42.638Z,-2.61
2023-02-09T01:12:09.111Z,-2.64
2023-02-09T01:14:37.936Z,-2.79
2023-02-09T01:17:04.817Z,-3.09
2023-02-09T01:19:31.539Z,-3.15
2023-02-09T01:21:58.011Z,-3.14
2023-02-09T01:24:24.500Z,-3.34
2023-02-09T01:26:50.995Z,-3.32
2023-02-09T01:29:18.421Z,-3.29
2023-02-09T01:31:45.603Z,-3.52
2023-02-09T01:34:13.682Z,-3.61
2023-02-09T01:36:40.419Z,-3.56
2023-02-09T01:39:07.199Z,-3.73
2023-02-09T01:41:34.798Z,-3.62
2023-02-09T01:44:03.653Z,-3.82
2023-02-09T01:46:31.768Z,-3.79
2023-02-09T01:49:01.626Z,-3.63
2023-02-09T01:51:29.238Z,-3.67
2023-02-09T01:53:56.825Z,-3.65
2023-02-09T01:56:28.100Z,-3.65
2023-02-09T01:58:54.766Z,-3.65
2023-02-09T02:01:21.868Z,-3.75
2023-02-09T02:03:48.742Z,-3.87
2023-02-09T02:06:15.861Z,-3.89
2023-02-09T02:08:55.312Z,-3.88
2023-02-09T02:11:24.036Z,-3.93
2023-02-09T02:13:50.861Z,-4.03
2023-02-09T02:16:20.514Z,-3.97
2023-02-09T02:19:05.887Z,-4.00
2023-02-09T02:21:32.295Z,-4.20
2023-02-09T02:24:01.573Z,-4.17
2023-02-09T02:26:48.354Z,-4.43
2023-02-09T02:29:15.058Z,-4.43
2023-02-09T02:31:41.499Z,-4.52
2023-02-09T02:34:25.456Z,-4.48
2023-02-09T02:36:58.598Z,-4.49
2023-02-09T02:39:28.133Z,-4.41
2023-02-09T02:42:18.953Z,-4.48
2023-02-09T02:44:49.998Z,-4.63
2023-02-09T02:47:19.226Z,-4.52
2023-02-09T02:49:45.636Z,-4.63
2023-02-09T02:52:12.190Z,-4.72
2023-02-09T02:54:40.835Z,-4.51
2023-02-09T02:57:13.554Z,-4.68
2023-02-09T02:59:44.237Z,-4.88
2023-02-09T03:02:13.580Z,-4.78
2023-02-09T03:04:40.700Z,-4.58
2023-02-09T03:07:10.792Z,-4.75
2023-02-09T03:09:37.256Z,-4.90
2023-02-09T03:12:16.928Z,-4.90
2023-02-09T03:14:48.025Z,-4.93
2023-02-09T03:17:27.801Z,-5.10
2023-02-09T03:20:01.369Z,-5.12
2023-02-09T03:22:31.031Z,-5.16
2023-02-09T03:25:03.101Z,-5.08
2023-02-09T03:27:35.230Z,-5.13
2023-02-09T03:30:04.279Z,-5.09
2023-02-09T03:32:31.337Z,-5.25
2023-02-09T03:34:58.031Z,-5.38
2023-02-09T03:37:24.517Z,-5.39
2023-02-09T03:39:50.988Z,-5.35
2023-02-09T03:42:17.506Z,-5.54
2023-02-09T03:44:44.029Z,-5.37
2023-02-09T03:47:10.822Z,-5.43
2023-02-09T03:49:41.253Z,-5.38
2023-02-09T03:52:09.065Z,-5.58
2023-02-09T03:54:35.862Z,-5.47
2023-02-09T03:57:03.099Z,-5.37
2023-02-09T03:59:29.692Z,-5.44
2023-02-09T04:01:57.828Z,-5.49
2023-02-09T04:04:25.405Z,-5.48
2023-02-09T04:06:52.232Z,-5.48
2023-02-09T04:09:18.833Z,-5.52
2023-02-09T04:11:47.064Z,-5.44
2023-02-09T04:14:13.636Z,-5.71
2023-02-09T04:16:40.356Z,-5.82
2023-02-09T04:19:09.099Z,-5.67
2023-02-09T04:21:38.915Z,-5.60
2023-02-09T04:24:05.966Z,-5.57
2023-02-09T04:26:32.712Z,-5.62
2023-02-09T04:28:59.187Z,-5.64
2023-02-09T04:31:25.937Z,-5.90
2023-02-09T04:33:52.443Z,-5.93
2023-02-09T04:36:18.905Z,-5.85
2023-02-09T04:38:45.369Z,-5.78
2023-02-09T04:41:11.912Z,-5.75
2023-02-09T04:43:38.372Z,-6.03
2023-02-09T04:46:04.962Z,-5.86
2023-02-09T04:48:31.474Z,-6.02
2023-02-09T04:50:58.065Z,-5.91
2023-02-09T04:53:24.984Z,-6.08
2023-02-09T04:55:52.064Z,-6.13
2023-02-09T04:58:38.330Z,-5.95
2023-02-09T05:01:05.318Z,-5.75
2023-02-09T05:03:31.892Z,-5.84
2023-02-09T05:05:59.589Z,-5.85
2023-02-09T05:08:26.479Z,-5.89
2023-02-09T05:10:53.587Z,-6.03
2023-02-09T05:13:20.523Z,-5.87
2023-02-09T05:15:47.154Z,-6.15
2023-02-09T05:18:15.569Z,-6.37
2023-02-09T05:20:42.334Z,-6.16
2023-02-09T05:23:08.860Z,-5.97
2023-02-09T05:25:35.435Z,-6.00
2023-02-09T05:28:01.969Z,-5.96
2023-02-09T05:30:28.645Z,-5.98
2023-02-09T05:32:55.514Z,-5.79
2023-02-09T05:35:21.982Z,-5.82
2023-02-09T05:37:48.426Z,-5.96
2023-02-09T05:40:15.031Z,-5.94
2023-02-09T05:42:41.609Z,-6.14
2023-02-09T05:45:08.667Z,-5.88
2023-02-09T05:47:35.218Z,-6.01
2023-02-09T05:50:01.671Z,-6.07
2023-02-09T05:52:28.154Z,-5.93
2023-02-09T05:54:55.066Z,-6.32
2023-02-09T05:57:21.657Z,-6.33
2023-02-09T05:59:48.090Z,-6.09
2023-02-09T06:02:14.685Z,-6.12
2023-02-09T06:04:41.218Z,-6.24
2023-02-09T06:07:07.702Z,-6.28
2023-02-09T06:09:34.209Z,-6.36
2023-02-09T06:12:00.772Z,-6.30
2023-02-09T06:14:27.295Z,-6.21
2023-02-09T06:16:53.737Z,-6.08
2023-02-09T06:19:21.157Z,-6.22
2023-02-09T06:21:47.627Z,-6.39
2023-02-09T06:24:14.855Z,-6.15
2023-02-09T06:26:41.623Z,-6.00
2023-02-09T06:29:09.252Z,-5.83
2023-02-09T06:31:36.047Z,-5.84
2023-02-09T06:34:02.534Z,-5.73
2023-02-09T06:36:29.072Z,-5.17
2023-02-09T06:38:55.723Z,-4.71
2023-02-09T06:41:22.329Z,-5.36
2023-02-09T06:43:48.977Z,-5.25
2023-02-09T06:46:15.641Z,-4.53
2023-02-09T06:48:42.086Z,-4.45
2023-02-09T06:51:09.277Z,-4.86
2023-02-09T06:53:36.549Z,-4.80
2023-02-09T06:56:03.150Z,-4.61
2023-02-09T06:58:30.073Z,-4.65
2023-02-09T07:01:01.497Z,-4.54
2023-02-09T07:03:27.936Z,-3.85
2023-02-09T07:05:54.356Z,-3.84
2023-02-09T07:08:20.837Z,-3.69
2023-02-09T07:10:47.502Z,-3.43
2023-02-09T07:13:14.150Z,-2.99
2023-02-09T07:15:41.595Z,-2.71
2023-02-09T07:18:08.048Z,-2.30
2023-02-09T07:20:34.458Z,-1.96
2023-02-09T07:23:01.572Z,-2.23
2023-02-09T07:25:28.053Z,-1.94
2023-02-09T07:27:54.638Z,-1.56
2023-02-09T07:30:21.190Z,-1.26
2023-02-09T07:32:47.621Z,-0.82
2023-02-09T07:35:14.073Z,-0.49
2023-02-09T07:37:40.531Z,-0.06
2023-02-09T07:40:07.449Z,0.39
2023-02-09T07:42:33.878Z,0.00
2023-02-09T07:45:02.208Z,0.46
2023-02-09T07:47:28.714Z,0.11
2023-02-09T07:49:55.204Z,-0.17
2023-02-09T07:52:21.644Z,0.34
2023-02-09T07:54:49.312Z,0.20
2023-02-09T07:57:15.738Z,0.77
2023-02-09T07:59:42.232Z,-0.26
2023-02-09T08:02:16.393Z,0.08
2023-02-09T08:04:43.528Z,0.50
2023-02-09T08:07:09.990Z,0.20
2023-02-09T08:09:36.474Z,0.61
2023-02-09T08:12:04.948Z,1.27
2023-02-09T08:14:39.605Z,1.13
2023-02-09T08:17:28.027Z,1.51
2023-02-09T08:20:00.712Z,1.75
2023-02-09T08:22:29.841Z,2.08
2023-02-09T08:24:57.111Z,1.02
2023-02-09T08:27:23.803Z,1.13
2023-02-09T08:29:50.288Z,1.81
2023-02-09T08:32:16.800Z,2.50
2023-02-09T08:34:43.347Z,1.99
2023-02-09T08:37:10.093Z,1.47
2023-02-09T08:39:36.515Z,1.11
2023-02-09T08:42:03.110Z,1.12
2023-02-09T08:44:29.552Z,1.87
2023-02-09T08:46:56.198Z,2.16
2023-02-09T08:49:22.971Z,3.15
2023-02-09T08:51:49.496Z,1.96
2023-02-09T08:54:16.269Z,1.58
2023-02-09T08:56:44.098Z,1.05
2023-02-09T08:59:10.706Z,0.43
2023-02-09T09:01:39.417Z,2.09
2023-02-09T09:04:06.565Z,3.47
2023-02-09T09:06:33.431Z,2.59
2023-02-09T09:09:00.324Z,2.00
2023-02-09T09:11:26.847Z,3.41
2023-02-09T09:13:53.499Z,3.94
2023-02-09T09:16:21.420Z,2.49
2023-02-09T09:18:48.241Z,3.44
2023-02-09T09:21:16.125Z,3.18
2023-02-09T09:23:42.979Z,4.53
2023-02-09T09:26:09.429Z,3.28
2023-02-09T09:28:36.316Z,2.94
2023-02-09T09:31:16.475Z,3.70
2023-02-09T09:33:43.623Z,3.76
2023-02-09T09:36:11.016Z,4.47
2023-02-09T09:38:38.508Z,3.85
2023-02-09T09:41:06.313Z,4.34
2023-02-09T09:43:32.711Z,4.94
2023-02-09T09:45:59.695Z,4.91
2023-02-09T09:48:28.616Z,4.36
2023-02-09T09:50:57.314Z,4.96
2023-02-09T09:53:33.173Z,4.95
2023-02-09T09:56:03.488Z,5.59
2023-02-09T09:58:30.869Z,5.06
2023-02-09T10:00:57.665Z,5.86
2023-02-09T10:03:24.629Z,6.37
2023-02-09T10:05:55.862Z,5.61
2023-02-09T10:08:30.008Z,5.94
2023-02-09T10:11:16.754Z,5.36
2023-02-09T10:13:50.563Z,4.37
2023-02-09T10:16:20.210Z,4.82
2023-02-09T10:18:53.956Z,4.90
2023-02-09T10:21:20.843Z,4.90
2023-02-09T10:23:47.277Z,4.15
2023-02-09T10:26:17.661Z,5.27
2023-02-09T10:28:45.953Z,5.14
2023-02-09T10:31:18.911Z,4.96
2023-02-09T10:33:49.336Z,5.88
2023-02-09T10:36:22.264Z,5.80
2023-02-09T10:38:48.777Z,5.64
2023-02-09T10:41:16.068Z,6.04
2023-02-09T10:43:43.030Z,5.99
2023-02-09T10:46:11.737Z,6.76
2023-02-09T10:48:43.001Z,4.65
2023-02-09T10:51:33.457Z,5.61
2023-02-09T10:53:59.963Z,5.52
2023-02-09T10:56:34.957Z,7.29
2023-02-09T10:59:04.411Z,6.72
2023-02-09T11:01:41.938Z,7.32
2023-02-09T11:04:22.294Z,7.82
2023-02-09T11:06:51.829Z,5.81
2023-02-09T11:09:20.253Z,5.93
2023-02-09T11:11:46.685Z,6.92
2023-02-09T11:14:14.123Z,6.37
2023-02-09T11:16:59.302Z,6.71
2023-02-09T11:19:44.550Z,7.03
2023-02-09T11:22:28.629Z,7.87
2023-02-09T11:25:17.413Z,7.00
2023-02-09T11:27:55.937Z,6.19
2023-02-09T11:30:37.717Z,5.99
2023-02-09T11:33:16.190Z,7.07
2023-02-09T11:35:45.633Z,6.66
2023-02-09T11:38:18.225Z,7.16
2023-02-09T11:40:49.227Z,5.86
2023-02-09T11:43:41.689Z,6.32
2023-02-09T11:46:14.785Z,6.10
2023-02-09T11:48:45.084Z,7.36
2023-02-09T11:51:17.388Z,7.25
2023-02-09T11:53:46.853Z,7.57
2023-02-09T11:56:15.829Z,6.48
2023-02-09T11:58:57.393Z,7.40
2023-02-09T12:01:29.984Z,8.01
2023-02-09T12:04:05.466Z,7.84
2023-02-09T12:06:55.853Z,7.19
2023-02-09T12:09:39.808Z,6.90
2023-02-09T12:12:12.290Z,7.19
2023-02-09T12:14:45.450Z,7.09
2023-02-09T12:17:15.125Z,7.85
2023-02-09T12:19:44.561Z,7.30
2023-02-09T12:22:29.954Z,8.56
2023-02-09T12:25:11.421Z,7.90
2023-02-09T12:27:40.888Z,8.14
2023-02-09T12:30:25.980Z,7.74
2023-02-09T12:33:10.407Z,7.34
2023-02-09T12:35:40.331Z,7.65
2023-02-09T12:38:19.742Z,6.29
2023-02-09T12:41:01.184Z,7.07
2023-02-09T12:43:29.739Z,7.00
2023-02-09T12:46:22.842Z,7.20
2023-02-09T12:49:01.513Z,7.09
2023-02-09T12:51:37.130Z,7.17
2023-02-09T12:54:22.344Z,7.29
2023-02-09T12:56:48.788Z,6.89
2023-02-09T12:59:16.783Z,6.84
2023-02-09T13:02:06.256Z,6.94
2023-02-09T13:04:34.745Z,6.89
2023-02-09T13:07:01.615Z,7.73
2023-02-09T13:09:34.913Z,7.72
2023-02-09T13:12:06.173Z,6.83
2023-02-09T13:14:32.756Z,6.58
2023-02-09T13:17:08.339Z,6.91
2023-02-09T13:19:53.641Z,7.32
2023-02-09T13:22:29.408Z,6.91
2023-02-09T13:25:10.714Z,7.57
2023-02-09T13:27:43.577Z,6.63
2023-02-09T13:30:14.763Z,5.59
2023-02-09T13:32:50.260Z,6.51
2023-02-09T13:35:23.485Z,6.48
2023-02-09T13:37:54.073Z,6.32
2023-02-09T13:40:23.706Z,7.09
2023-02-09T13:43:10.125Z,7.10
2023-02-09T13:45:36.933Z,6.65
2023-02-09T13:48:13.705Z,6.67
2023-02-09T13:50:46.576Z,6.69
2023-02-09T13:53:16.789Z,6.85
2023-02-09T13:55:47.009Z,6.90
2023-02-09T13:58:17.279Z,6.75
2023-02-09T14:00:45.667Z,6.39
2023-02-09T14:03:17.706Z,6.08
2023-02-09T14:05:48.244Z,6.48
2023-02-09T14:08:16.087Z,6.20
2023-02-09T14:10:45.095Z,6.67
2023-02-09T14:13:11.866Z,6.39
2023-02-09T14:15:59.594Z,6.18
2023-02-09T14:18:26.022Z,6.63
2023-02-09T14:21:24.862Z,6.34
2023-02-09T14:24:00.827Z,6.55
2023-02-09T14:26:28.530Z,6.04
2023-02-09T14:29:05.039Z,6.03
2023-02-09T14:31:34.298Z,6.51
2023-02-09T14:34:00.814Z,6.16
2023-02-09T14:36:35.342Z,5.63
2023-02-09T14:39:21.024Z,5.93
2023-02-09T14:42:06.449Z,5.83
2023-02-09T14:44:32.934Z,5.50
2023-02-09T14:47:00.974Z,5.60
2023-02-09T14:49:28.458Z,5.83
2023-02-09T14:52:15.012Z,5.51
2023-02-09T14:54:50.924Z,5.44
2023-02-09T14:57:17.463Z,5.40
2023-02-09T14:59:43.905Z,5.11
2023-02-09T15:02:16.697Z,4.79
2023-02-09T15:04:43.382Z,5.01
2023-02-09T15:07:11.790Z,4.73
2023-02-09T15:09:38.657Z,4.11
2023-02-09T15:12:06.090Z,4.58
2023-02-09T15:14:44.026Z,4.62
2023-02-09T15:17:12.531Z,4.73
2023-02-09T15:19:39.073Z,4.70
2023-02-09T15:22:07.625Z,4.54
2023-02-09T15:24:37.417Z,4.62
2023-02-09T15:27:03.987Z,4.16
2023-02-09T15:29:30.754Z,3.88
2023-02-09T15:31:57.290Z,3.36
2023-02-09T15:34:23.799Z,3.22
2023-02-09T15:36:50.557Z,3.00
2023-02-09T15:39:19.749Z,2.73
2023-02-09T15:42:04.914Z,2.49
2023-02-09T15:44:50.135Z,2.44
2023-02-09T15:47:35.147Z,2.16
2023-02-09T15:50:01.587Z,2.19
2023-02-09T15:52:29.460Z,1.76
2023-02-09T15:54:56.042Z,1.65
2023-02-09T15:57:25.126Z,1.67
2023-02-09T15:59:51.826Z,1.63
2023-02-09T16:02:19.427Z,1.55
2023-02-09T16:04:46.497Z,1.34
2023-02-09T16:07:14.582Z,0.98
2023-02-09T16:09:42.757Z,0.91
2023-02-09T16:12:12.328Z,0.99
2023-02-09T16:14:39.040Z,0.85
2023-02-09T16:17:05.703Z,0.59
2023-02-09T16:19:32.261Z,0.85
2023-02-09T16:21:59.972Z,0.65
2023-02-09T16:24:30.182Z,0.33
2023-02-09T16:26:58.377Z,0.30
2023-02-09T16:29:25.890Z,0.49
2023-02-09T16:31:52.469Z,-0.06
2023-02-09T16:34:18.933Z,0.03
2023-02-09T16:36:47.700Z,0.30
2023-02-09T16:39:19.170Z,0.06
2023-02-09T16:41:52.818Z,0.05
2023-02-09T16:44:23.975Z,0.04
2023-02-09T16:46:55.286Z,-0.04
2023-02-09T16:49:41.613Z,-0.19
2023-02-09T16:52:14.136Z,-0.13
2023-02-09T16:54:43.343Z,-0.29
2023-02-09T16:57:14.596Z,-0.33
2023-02-09T16:59:41.189Z,-0.35
2023-02-09T17:02:30.996Z,-0.48
2023-02-09T17:04:58.115Z,-0.72
2023-02-09T17:07:32.987Z,-0.61
2023-02-09T17:10:02.193Z,-0.81
2023-02-09T17:12:28.740Z,-0.67
2023-02-09T17:14:55.180Z,-0.53
2023-02-09T17:17:22.700Z,-0.57
2023-02-09T17:19:49.986Z,-0.45
2023-02-09T17:22:16.542Z,-0.57
2023-02-09T17:24:43.039Z,-0.86
2023-02-09T17:27:09.838Z,-0.95
2023-02-09T17:29:36.302Z,-0.98
2023-02-09T17:32:02.938Z,-0.93
2023-02-09T17:34:29.504Z,-0.99
2023-02-09T17:36:56.779Z,-1.16
2023-02-09T17:39:23.267Z,-1.13
2023-02-09T17:41:50.045Z,-1.05
2023-02-09T17:44:39.633Z,-1.23
2023-02-09T17:47:19.934Z,-1.23
2023-02-09T17:49:46.959Z,-1.37
2023-02-09T17:52:22.468Z,-1.40
2023-02-09T17:54:50.833Z,-1.31
2023-02-09T17:57:17.351Z,-1.44
2023-02-09T17:59:43.999Z,-1.26
2023-02-09T18:02:15.513Z,-1.40
2023-02-09T18:04:42.401Z,-1.48
2023-02-09T18:07:09.534Z,-1.70
2023-02-09T18:09:36.660Z,-1.70
2023-02-09T18:12:04.579Z,-1.80
2023-02-09T18:14:32.454Z,-1.66
2023-02-09T18:16:59.174Z,-1.61
2023-02-09T18:19:25.973Z,-1.82
2023-02-09T18:21:54.089Z,-1.82
2023-02-09T18:24:21.741Z,-1.72
2023-02-09T18:26:50.038Z,-1.85
2023-02-09T18:29:17.458Z,-2.22
2023-02-09T18:31:44.224Z,-2.21
2023-02-09T18:34:10.815Z,-2.31
2023-02-09T18:36:37.328Z,-2.36
2023-02-09T18:39:03.876Z,-2.21
2023-02-09T18:41:30.335Z,-2.29
2023-02-09T18:43:56.851Z,-2.20
2023-02-09T18:46:25.349Z,-2.19
2023-02-09T18:48:51.882Z,-2.43
2023-02-09T18:51:18.565Z,-2.36
2023-02-09T18:53:45.038Z,-2.27
2023-02-09T18:56:19.248Z,-2.25
2023-02-09T18:58:46.132Z,-2.42
2023-02-09T19:01:12.986Z,-2.63
2023-02-09T19:03:39.590Z,-2.49
2023-02-09T19:06:09.992Z,-2.68
2023-02-09T19:08:36.684Z,-2.89
2023-02-09T19:11:05.101Z,-2.91
2023-02-09T19:13:33.867Z,-2.92
2023-02-09T19:16:00.834Z,-2.87
2023-02-09T19:18:27.431Z,-2.90
2023-02-09T19:20:56.952Z,-2.91
2023-02-09T19:23:24.479Z,-2.78
2023-02-09T19:26:00.454Z,-3.05
2023-02-09T19:28:26.974Z,-3.30
2023-02-09T19:30:53.470Z,-3.26
2023-02-09T19:33:23.045Z,-3.01
2023-02-09T19:35:58.680Z,-3.22
2023-02-09T19:38:25.700Z,-2.98
2023-02-09T19:41:05.129Z,-2.87
2023-02-09T19:43:36.246Z,-2.85
2023-02-09T19:46:04.440Z,-2.90
2023-02-09T19:48:31.067Z,-2.94
2023-02-09T19:50:58.093Z,-2.87
2023-02-09T19:53:25.456Z,-2.92
2023-02-09T19:55:52.608Z,-2.98
2023-02-09T19:58:21.388Z,-2.90
2023-02-09T20:00:48.350Z,-3.21
2023-02-09T20:03:15.776Z,-3.09
2023-02-09T20:05:43.125Z,-3.16
2023-02-09T20:08:11.627Z,-3.42
2023-02-09T20:10:38.870Z,-3.50
2023-02-09T20:13:05.597Z,-3.19
2023-02-09T20:15:32.321Z,-3.57
2023-02-09T20:17:58.871Z,-3.33
2023-02-09T20:20:25.365Z,-3.38
2023-02-09T20:22:51.859Z,-3.46
2023-02-09T20:25:18.774Z,-3.58
2023-02-09T20:27:47.488Z,-3.62
2023-02-09T20:30:14.257Z,-3.60
2023-02-09T20:32:40.745Z,-3.41
2023-02-09T20:35:07.477Z,-3.52
2023-02-09T20:37:33.972Z,-3.65
2023-02-09T20:40:01.438Z,-3.60
2023-02-09T20:42:46.763Z,-3.44
2023-02-09T20:45:32.370Z,-3.79
2023-02-09T20:47:58.900Z,-4.08
2023-02-09T20:50:25.701Z,-3.92
2023-02-09T20:52:52.240Z,-3.82
2023-02-09T20:55:22.410Z,-3.60
2023-02-09T20:57:50.284Z,-3.64
2023-02-09T21:00:16.879Z,-3.72
2023-02-09T21:02:43.368Z,-3.91
2023-02-09T21:05:09.872Z,-3.80
2023-02-09T21:07:36.387Z,-3.73
2023-02-09T21:10:03.062Z,-3.85
2023-02-09T21:12:29.580Z,-3.92
2023-02-09T21:14:56.551Z,-3.97
2023-02-09T21:17:23.483Z,-3.83
2023-02-09T21:19:50.195Z,-3.93
2023-02-09T21:22:16.901Z,-3.83
2023-02-09T21:24:43.450Z,-3.90
2023-02-09T21:27:09.879Z,-3.87
2023-02-09T21:29:36.494Z,-4.16
2023-02-09T21:32:04.316Z,-4.31
2023-02-09T21:34:31.620Z,-4.40
2023-02-09T21:36:58.492Z,-4.26
2023-02-09T21:39:24.935Z,-4.06
2023-02-09T21:42:10.248Z,-4.18
2023-02-09T21:44:37.413Z,-4.27
2023-02-09T21:47:04.064Z,-4.28
2023-02-09T21:49:31.868Z,-4.44
2023-02-09T21:51:59.656Z,-4.23
2023-02-09T21:54:28.188Z,-4.34
2023-02-09T21:56:55.542Z,-4.47
2023-02-09T21:59:21.972Z,-4.36
2023-02-09T22:01:48.465Z,-4.50
2023-02-09T22:04:14.981Z,-4.76
2023-02-09T22:06:41.909Z,-4.73
2023-02-09T22:09:08.474Z,-4.68
2023-02-09T22:11:34.964Z,-4.57
2023-02-09T22:14:01.510Z,-4.71
2023-02-09T22:16:29.461Z,-4.68
2023-02-09T22:18:56.507Z,-4.96
2023-02-09T22:21:23.057Z,-5.05
2023-02-09T22:23:51.256Z,-4.79
2023-02-09T22:26:17.710Z,-4.98
2023-02-09T22:28:44.274Z,-5.08
2023-02-09T22:31:12.682Z,-4.97
2023-02-09T22:33:39.207Z,-4.73
2023-02-09T22:36:06.578Z,-4.77
2023-02-09T22:38:33.431Z,-4.92
2023-02-09T22:41:07.296Z,-5.02
2023-02-09T22:43:34.618Z,-4.89
2023-02-09T22:46:01.228Z,-4.99
2023-02-09T22:48:27.750Z,-4.97
2023-02-09T22:50:54.257Z,-5.00
2023-02-09T22:53:20.726Z,-4.76
2023-02-09T22:55:48.523Z,-4.87
2023-02-09T22:58:15.224Z,-5.05
2023-02-09T23:00:41.821Z,-5.01
2023-02-09T23:03:08.287Z,-4.99
2023-02-09T23:05:35.209Z,-5.19
2023-02-09T23:08:01.632Z,-5.35
2023-02-09T23:10:28.076Z,-5.36
2023-02-09T23:12:54.536Z,-5.17
2023-02-09T23:15:20.996Z,-5.28
2023-02-09T23:17:47.465Z,-5.43
2023-02-09T23:20:13.924Z,-5.34
2023-02-09T23:22:40.425Z,-5.23
2023-02-09T23:25:07.111Z,-5.35
2023-02-09T23:27:33.536Z,-5.20
2023-02-09T23:30:00.077Z,-5.22
2023-02-09T23:32:26.687Z,-5.31
2023-02-09T23:34:53.163Z,-5.15
2023-02-09T23:37:36.822Z,-5.13
2023-02-09T23:40:04.374Z,-5.23
2023-02-09T23:42:30.833Z,-5.21
2023-02-09T23:44:57.275Z,-5.24
2023-02-09T23:47:23.763Z,-5.40
2023-02-09T23:49:50.769Z,-5.47
2023-02-09T23:52:17.233Z,-5.29
2023-02-09T23:54:43.727Z,-5.17
2023-02-09T23:57:10.164Z,-5.32
2023-02-09T23:59:36.587Z,-5.51
